PWSweather.com
Personal Weather Stations
Station Observations
KMAMEDFI2
Medfield, MA 02052

Medfield, MA 02052

Lat: 42.1900822, Lon: -71.3296889

Elevation: 138

Station Type: Rainwise WS MK-III

http://www.medfieldweather.com

High Low Average
Temperature 55.4°F13.0°C 27.2°F-2.7°C 41.8°F5.4°C
Dew Point 31.0°F-0.6°C 19.4°F-7.0°C 23.6°F-4.7°C
Winds 6.9 mph 11.1 kmh Calm Calm 2.0 mph WSW3.2 kmh WSW
Wind Gusts 15.0 mph24.1 kmh -- 3.0 mph4.8 kmh
Humidity 88% 27% 52%
Pressure 30.29 in1025.7 mb 30.06 in1017.9 mb -
Precipitation 0.00 in0.0 mm - -
Hour Temp Dew Point Humidity Winds Wind Gusts Pressure Precip Precip Rate Daily Precip Total
12:00 AM 32.4°F0.2°C 23.4°F-4.8°C 69% Calm Calm 2.3 mph3.7 kmh 30.04 in1017.3 mb - 0.00 in0.0 mm 0.00 in0.0 mm
12:10 AM 32.3°F0.2°C 23.3°F-4.8°C 69% 1.2 mph SW1.9 kmh SW 2.3 mph3.7 kmh 30.05 in1017.6 mb - 0.00 in0.0 mm 0.00 in0.0 mm
12:20 AM 32.2°F0.1°C 23.5°F-4.7°C 70% 2.3 mph SE3.7 kmh SE 2.3 mph3.7 kmh 30.05 in1017.6 mb - 0.00 in0.0 mm 0.00 in0.0 mm
12:30 AM 32.2°F0.1°C 23.2°F-4.9°C 69% 2.3 mph NW3.7 kmh NW 2.3 mph3.7 kmh 30.05 in1017.6 mb - 0.00 in0.0 mm 0.00 in0.0 mm
12:40 AM 31.9°F-0.1°C 22.9°F-5.1°C 69% 2.3 mph WSW3.7 kmh WSW 2.3 mph3.7 kmh 30.05 in1017.6 mb - 0.00 in0.0 mm 0.00 in0.0 mm
12:50 AM 31.9°F-0.1°C 22.9°F-5.1°C 69% 2.3 mph NW3.7 kmh NW 5.8 mph9.3 kmh 30.05 in1017.6 mb - 0.00 in0.0 mm 0.00 in0.0 mm
01:00 AM 32.0°F0.0°C 23.3°F-4.8°C 70% 2.3 mph WSW3.7 kmh WSW 5.8 mph9.3 kmh 30.06 in1017.9 mb - 0.00 in0.0 mm 0.00 in0.0 mm
01:10 AM 31.8°F-0.1°C 23.1°F-4.9°C 70% 1.2 mph NW1.9 kmh NW 2.3 mph3.7 kmh 30.06 in1017.9 mb - 0.00 in0.0 mm 0.00 in0.0 mm
01:20 AM 31.8°F-0.1°C 22.8°F-5.1°C 69% 2.3 mph WSW3.7 kmh WSW 2.3 mph3.7 kmh 30.06 in1017.9 mb - 0.00 in0.0 mm 0.00 in0.0 mm
01:30 AM 31.8°F-0.1°C 23.1°F-4.9°C 70% 2.3 mph NW3.7 kmh NW 2.3 mph3.7 kmh 30.06 in1017.9 mb - 0.00 in0.0 mm 0.00 in0.0 mm
01:40 AM 32.2°F0.1°C 23.8°F-4.6°C 71% 2.3 mph WNW3.7 kmh WNW 2.3 mph3.7 kmh 30.06 in1017.9 mb - 0.00 in0.0 mm 0.00 in0.0 mm
01:50 AM 32.3°F0.2°C 24.3°F-4.3°C 72% Calm Calm -- 30.07 in1018.3 mb - 0.00 in0.0 mm 0.00 in0.0 mm
02:00 AM 31.5°F-0.3°C 24.2°F-4.3°C 74% 2.3 mph NW3.7 kmh NW 2.3 mph3.7 kmh 30.06 in1017.9 mb - 0.00 in0.0 mm 0.00 in0.0 mm
02:10 AM 31.2°F-0.4°C 24.2°F-4.3°C 75% Calm Calm -- 30.07 in1018.3 mb - 0.00 in0.0 mm 0.00 in0.0 mm
02:20 AM 31.0°F-0.6°C 24.0°F-4.4°C 75% 1.2 mph NW1.9 kmh NW 2.3 mph3.7 kmh 30.06 in1017.9 mb - 0.00 in0.0 mm 0.00 in0.0 mm
02:30 AM 31.2°F-0.4°C 24.5°F-4.2°C 76% 2.3 mph W3.7 kmh W 2.3 mph3.7 kmh 30.06 in1017.9 mb - 0.00 in0.0 mm 0.00 in0.0 mm
02:40 AM 31.8°F-0.1°C 23.8°F-4.6°C 72% 1.2 mph SW1.9 kmh SW 2.3 mph3.7 kmh 30.06 in1017.9 mb - 0.00 in0.0 mm 0.00 in0.0 mm
02:50 AM 31.4°F-0.3°C 24.1°F-4.4°C 74% 3.5 mph NW5.6 kmh NW 5.8 mph9.3 kmh 30.06 in1017.9 mb - 0.00 in0.0 mm 0.00 in0.0 mm
03:00 AM 31.2°F-0.4°C 23.5°F-4.7°C 73% 2.3 mph WSW3.7 kmh WSW 2.3 mph3.7 kmh 30.06 in1017.9 mb - 0.00 in0.0 mm 0.00 in0.0 mm
03:10 AM 31.3°F-0.4°C 23.9°F-4.5°C 74% 2.3 mph WSW3.7 kmh WSW 2.3 mph3.7 kmh 30.06 in1017.9 mb - 0.00 in0.0 mm 0.00 in0.0 mm
03:20 AM 31.0°F-0.6°C 23.3°F-4.8°C 73% 2.3 mph NW3.7 kmh NW 2.3 mph3.7 kmh 30.06 in1017.9 mb - 0.00 in0.0 mm 0.00 in0.0 mm
03:30 AM 31.1°F-0.5°C 23.5°F-4.7°C 73% 3.5 mph WSW5.6 kmh WSW 5.8 mph9.3 kmh 30.06 in1017.9 mb - 0.00 in0.0 mm 0.00 in0.0 mm
03:40 AM 30.9°F-0.6°C 23.6°F-4.7°C 74% Calm Calm 2.3 mph3.7 kmh 30.07 in1018.3 mb - 0.00 in0.0 mm 0.00 in0.0 mm
03:50 AM 30.3°F-0.9°C 23.3°F-4.8°C 75% Calm Calm 1.2 mph1.9 kmh 30.06 in1017.9 mb - 0.00 in0.0 mm 0.00 in0.0 mm
04:00 AM 29.4°F-1.4°C 23.7°F-4.6°C 79% 1.2 mph WNW1.9 kmh WNW 2.3 mph3.7 kmh 30.07 in1018.3 mb - 0.00 in0.0 mm 0.00 in0.0 mm
04:10 AM 29.2°F-1.6°C 23.5°F-4.7°C 79% Calm Calm -- 30.07 in1018.3 mb - 0.00 in0.0 mm 0.00 in0.0 mm
04:20 AM 28.7°F-1.8°C 23.9°F-4.5°C 82% Calm Calm -- 30.07 in1018.3 mb - 0.00 in0.0 mm 0.00 in0.0 mm
04:30 AM 28.9°F-1.7°C 23.8°F-4.6°C 81% Calm Calm 2.3 mph3.7 kmh 30.07 in1018.3 mb - 0.00 in0.0 mm 0.00 in0.0 mm
04:40 AM 28.4°F-2.0°C 23.9°F-4.5°C 83% Calm Calm -- 30.07 in1018.3 mb - 0.00 in0.0 mm 0.00 in0.0 mm
04:50 AM 27.5°F-2.5°C 23.6°F-4.7°C 85% Calm Calm 2.3 mph3.7 kmh 30.06 in1017.9 mb - 0.00 in0.0 mm 0.00 in0.0 mm
05:00 AM 27.9°F-2.3°C 23.7°F-4.6°C 84% 1.2 mph W1.9 kmh W 2.3 mph3.7 kmh 30.06 in1017.9 mb - 0.00 in0.0 mm 0.00 in0.0 mm
05:10 AM 27.9°F-2.3°C 24.0°F-4.4°C 85% Calm Calm -- 30.06 in1017.9 mb - 0.00 in0.0 mm 0.00 in0.0 mm
05:20 AM 27.3°F-2.6°C 24.0°F-4.4°C 87% Calm Calm -- 30.07 in1018.3 mb - 0.00 in0.0 mm 0.00 in0.0 mm
05:30 AM 27.2°F-2.7°C 24.2°F-4.3°C 88% Calm Calm 2.3 mph3.7 kmh 30.06 in1017.9 mb - 0.00 in0.0 mm 0.00 in0.0 mm
05:40 AM 28.7°F-1.8°C 24.2°F-4.3°C 83% 1.2 mph SW1.9 kmh SW 1.2 mph1.9 kmh 30.07 in1018.3 mb - 0.00 in0.0 mm 0.00 in0.0 mm
05:50 AM 29.5°F-1.4°C 24.4°F-4.2°C 81% Calm Calm 1.2 mph1.9 kmh 30.07 in1018.3 mb - 0.00 in0.0 mm 0.00 in0.0 mm
06:00 AM 30.0°F-1.1°C 24.0°F-4.4°C 78% 1.2 mph W1.9 kmh W 2.3 mph3.7 kmh 30.08 in1018.6 mb - 0.00 in0.0 mm 0.00 in0.0 mm
06:10 AM 30.5°F-0.8°C 24.2°F-4.3°C 77% 1.2 mph WNW1.9 kmh WNW 2.3 mph3.7 kmh 30.09 in1019.0 mb - 0.00 in0.0 mm 0.00 in0.0 mm
06:20 AM 30.7°F-0.7°C 24.7°F-4.1°C 78% 1.2 mph SW1.9 kmh SW 2.3 mph3.7 kmh 30.10 in1019.3 mb - 0.00 in0.0 mm 0.00 in0.0 mm
06:30 AM 29.7°F-1.3°C 24.3°F-4.3°C 80% Calm Calm -- 30.10 in1019.3 mb - 0.00 in0.0 mm 0.00 in0.0 mm
06:40 AM 29.4°F-1.4°C 24.3°F-4.3°C 81% Calm Calm -- 30.10 in1019.3 mb - 0.00 in0.0 mm 0.00 in0.0 mm
06:50 AM 30.0°F-1.1°C 23.6°F-4.7°C 77% 1.2 mph SW1.9 kmh SW 2.3 mph3.7 kmh 30.11 in1019.6 mb - 0.00 in0.0 mm 0.00 in0.0 mm
07:00 AM 30.7°F-0.7°C 24.7°F-4.1°C 78% Calm Calm 2.3 mph3.7 kmh 30.12 in1020.0 mb - 0.00 in0.0 mm 0.00 in0.0 mm
07:10 AM 31.0°F-0.6°C 24.7°F-4.1°C 77% 1.2 mph SW1.9 kmh SW 1.2 mph1.9 kmh 30.13 in1020.3 mb - 0.00 in0.0 mm 0.00 in0.0 mm
07:20 AM 32.3°F0.2°C 25.0°F-3.9°C 74% 2.3 mph SW3.7 kmh SW 2.3 mph3.7 kmh 30.14 in1020.7 mb - 0.00 in0.0 mm 0.00 in0.0 mm
07:30 AM 33.6°F0.9°C 24.9°F-3.9°C 70% 1.2 mph SW1.9 kmh SW 1.2 mph1.9 kmh 30.15 in1021.0 mb - 0.00 in0.0 mm 0.00 in0.0 mm
07:40 AM 34.8°F1.6°C 25.0°F-3.9°C 67% 1.2 mph W1.9 kmh W 2.3 mph3.7 kmh 30.15 in1021.0 mb - 0.00 in0.0 mm 0.00 in0.0 mm
07:50 AM 35.7°F2.1°C 24.0°F-4.4°C 62% 5.8 mph W9.3 kmh W 8.1 mph13.0 kmh 30.16 in1021.3 mb - 0.00 in0.0 mm 0.00 in0.0 mm
08:00 AM 36.5°F2.5°C 24.7°F-4.1°C 62% 1.2 mph NNE1.9 kmh NNE 3.5 mph5.6 kmh 30.17 in1021.7 mb - 0.00 in0.0 mm 0.00 in0.0 mm
08:10 AM 37.1°F2.8°C 24.1°F-4.4°C 59% 2.3 mph W3.7 kmh W 3.5 mph5.6 kmh 30.17 in1021.7 mb - 0.00 in0.0 mm 0.00 in0.0 mm
08:20 AM 37.9°F3.3°C 23.2°F-4.9°C 55% 2.3 mph NNE3.7 kmh NNE 2.3 mph3.7 kmh 30.18 in1022.0 mb - 0.00 in0.0 mm 0.00 in0.0 mm
08:30 AM 38.6°F3.7°C 22.5°F-5.3°C 52% 2.3 mph NE3.7 kmh NE 2.3 mph3.7 kmh 30.19 in1022.4 mb - 0.00 in0.0 mm 0.00 in0.0 mm
08:40 AM 39.2°F4.0°C 23.0°F-5.0°C 52% 2.3 mph WNW3.7 kmh WNW 5.8 mph9.3 kmh 30.19 in1022.4 mb - 0.00 in0.0 mm 0.00 in0.0 mm
08:50 AM 39.7°F4.3°C 22.6°F-5.2°C 50% 3.5 mph WNW5.6 kmh WNW 9.2 mph14.8 kmh 30.20 in1022.7 mb - 0.00 in0.0 mm 0.00 in0.0 mm
09:00 AM 40.1°F4.5°C 21.5°F-5.8°C 47% 6.9 mph NW11.1 kmh NW 8.1 mph13.0 kmh 30.21 in1023.0 mb - 0.00 in0.0 mm 0.00 in0.0 mm
09:10 AM 40.5°F4.7°C 21.8°F-5.7°C 47% 4.6 mph W7.4 kmh W 2.3 mph3.7 kmh 30.21 in1023.0 mb - 0.00 in0.0 mm 0.00 in0.0 mm
09:20 AM 41.4°F5.2°C 23.1°F-4.9°C 48% 2.3 mph W3.7 kmh W 8.1 mph13.0 kmh 30.21 in1023.0 mb - 0.00 in0.0 mm 0.00 in0.0 mm
09:30 AM 41.2°F5.1°C 22.5°F-5.3°C 47% 6.9 mph NW11.1 kmh NW 15.0 mph24.1 kmh 30.23 in1023.7 mb - 0.00 in0.0 mm 0.00 in0.0 mm
09:40 AM 41.5°F5.3°C 22.7°F-5.2°C 47% 3.5 mph S5.6 kmh S 5.8 mph9.3 kmh 30.23 in1023.7 mb - 0.00 in0.0 mm 0.00 in0.0 mm
09:50 AM 41.9°F5.5°C 22.6°F-5.2°C 46% 3.5 mph SE5.6 kmh SE 3.5 mph5.6 kmh 30.23 in1023.7 mb - 0.00 in0.0 mm 0.00 in0.0 mm
10:00 AM 42.5°F5.8°C 23.1°F-4.9°C 46% 4.6 mph WSW7.4 kmh WSW 10.4 mph16.7 kmh 30.23 in1023.7 mb - 0.00 in0.0 mm 0.00 in0.0 mm
10:10 AM 43.1°F6.2°C 22.1°F-5.5°C 43% 3.5 mph WNW5.6 kmh WNW 8.1 mph13.0 kmh 30.23 in1023.7 mb - 0.00 in0.0 mm 0.00 in0.0 mm
10:20 AM 43.4°F6.3°C 20.7°F-6.3°C 40% 5.8 mph NW9.3 kmh NW 6.9 mph11.1 kmh 30.23 in1023.7 mb - 0.00 in0.0 mm 0.00 in0.0 mm
10:30 AM 43.7°F6.5°C 22.1°F-5.5°C 42% 4.6 mph WSW7.4 kmh WSW 8.1 mph13.0 kmh 30.23 in1023.7 mb - 0.00 in0.0 mm 0.00 in0.0 mm
10:40 AM 44.2°F6.8°C 22.5°F-5.3°C 42% 4.6 mph SW7.4 kmh SW 3.5 mph5.6 kmh 30.24 in1024.0 mb - 0.00 in0.0 mm 0.00 in0.0 mm
10:50 AM 44.9°F7.2°C 20.2°F-6.6°C 37% 3.5 mph WSW5.6 kmh WSW 3.5 mph5.6 kmh 30.24 in1024.0 mb - 0.00 in0.0 mm 0.00 in0.0 mm
11:00 AM 45.8°F7.7°C 21.0°F-6.1°C 37% 3.5 mph NNW5.6 kmh NNW 5.8 mph9.3 kmh 30.25 in1024.4 mb - 0.00 in0.0 mm 0.00 in0.0 mm
11:10 AM 45.2°F7.3°C 20.4°F-6.4°C 37% 3.5 mph SW5.6 kmh SW 2.3 mph3.7 kmh 30.25 in1024.4 mb - 0.00 in0.0 mm 0.00 in0.0 mm
11:20 AM 46.2°F7.9°C 21.3°F-5.9°C 37% 2.3 mph W3.7 kmh W 2.3 mph3.7 kmh 30.24 in1024.0 mb - 0.00 in0.0 mm 0.00 in0.0 mm
11:30 AM 46.9°F8.3°C 22.0°F-5.6°C 37% 2.3 mph SW3.7 kmh SW 6.9 mph11.1 kmh 30.25 in1024.4 mb - 0.00 in0.0 mm 0.00 in0.0 mm
11:40 AM 47.5°F8.6°C 24.3°F-4.3°C 40% 4.6 mph NW7.4 kmh NW 13.8 mph22.2 kmh 30.25 in1024.4 mb - 0.00 in0.0 mm 0.00 in0.0 mm
11:50 AM 47.1°F8.4°C 20.8°F-6.2°C 35% 6.9 mph W11.1 kmh W 5.8 mph9.3 kmh 30.25 in1024.4 mb - 0.00 in0.0 mm 0.00 in0.0 mm
12:00 PM 47.6°F8.7°C 22.6°F-5.2°C 37% 5.8 mph NW9.3 kmh NW 8.1 mph13.0 kmh 30.25 in1024.4 mb - 0.00 in0.0 mm 0.00 in0.0 mm
12:10 PM 48.7°F9.3°C 22.2°F-5.4°C 35% 2.3 mph SE3.7 kmh SE 2.3 mph3.7 kmh 30.25 in1024.4 mb - 0.00 in0.0 mm 0.00 in0.0 mm
12:20 PM 48.5°F9.2°C 22.7°F-5.2°C 36% 1.2 mph SE1.9 kmh SE 2.3 mph3.7 kmh 30.25 in1024.4 mb - 0.00 in0.0 mm 0.00 in0.0 mm
12:30 PM 49.8°F9.9°C 22.5°F-5.3°C 34% 2.3 mph NNE3.7 kmh NNE 2.3 mph3.7 kmh 30.24 in1024.0 mb - 0.00 in0.0 mm 0.00 in0.0 mm
12:40 PM 50.1°F10.1°C 22.1°F-5.5°C 33% 3.5 mph NW5.6 kmh NW 8.1 mph13.0 kmh 30.24 in1024.0 mb - 0.00 in0.0 mm 0.00 in0.0 mm
12:50 PM 50.0°F10.0°C 22.7°F-5.2°C 34% 6.9 mph WSW11.1 kmh WSW 10.4 mph16.7 kmh 30.24 in1024.0 mb - 0.00 in0.0 mm 0.00 in0.0 mm
01:00 PM 49.5°F9.7°C 21.6°F-5.8°C 33% 5.8 mph SW9.3 kmh SW 8.1 mph13.0 kmh 30.24 in1024.0 mb - 0.00 in0.0 mm 0.00 in0.0 mm
01:10 PM 50.0°F10.0°C 21.3°F-5.9°C 32% 3.5 mph SE5.6 kmh SE 2.3 mph3.7 kmh 30.24 in1024.0 mb - 0.00 in0.0 mm 0.00 in0.0 mm
01:20 PM 50.2°F10.1°C 22.9°F-5.1°C 34% 3.5 mph W5.6 kmh W 3.5 mph5.6 kmh 30.24 in1024.0 mb - 0.00 in0.0 mm 0.00 in0.0 mm
01:30 PM 50.4°F10.2°C 22.3°F-5.4°C 33% 3.5 mph WNW5.6 kmh WNW 9.2 mph14.8 kmh 30.24 in1024.0 mb - 0.00 in0.0 mm 0.00 in0.0 mm
01:40 PM 51.2°F10.7°C 22.3°F-5.4°C 32% 3.5 mph W5.6 kmh W 9.2 mph14.8 kmh 30.23 in1023.7 mb - 0.00 in0.0 mm 0.00 in0.0 mm
01:50 PM 51.9°F11.1°C 22.9°F-5.1°C 32% 3.5 mph NW5.6 kmh NW 6.9 mph11.1 kmh 30.23 in1023.7 mb - 0.00 in0.0 mm 0.00 in0.0 mm
02:00 PM 52.8°F11.6°C 23.7°F-4.6°C 32% 2.3 mph WNW3.7 kmh WNW 5.8 mph9.3 kmh 30.23 in1023.7 mb - 0.00 in0.0 mm 0.00 in0.0 mm
02:10 PM 51.6°F10.9°C 23.4°F-4.8°C 33% 2.3 mph WSW3.7 kmh WSW 2.3 mph3.7 kmh 30.24 in1024.0 mb - 0.00 in0.0 mm 0.00 in0.0 mm
02:20 PM 52.7°F11.5°C 22.8°F-5.1°C 31% 4.6 mph NW7.4 kmh NW 6.9 mph11.1 kmh 30.24 in1024.0 mb - 0.00 in0.0 mm 0.00 in0.0 mm
02:30 PM 52.3°F11.3°C 24.0°F-4.4°C 33% 3.5 mph NE5.6 kmh NE 3.5 mph5.6 kmh 30.24 in1024.0 mb - 0.00 in0.0 mm 0.00 in0.0 mm
02:40 PM 53.3°F11.8°C 21.8°F-5.7°C 29% 3.5 mph N5.6 kmh N 5.8 mph9.3 kmh 30.24 in1024.0 mb - 0.00 in0.0 mm 0.00 in0.0 mm
02:50 PM 53.7°F12.1°C 22.2°F-5.4°C 29% 2.3 mph SW3.7 kmh SW 2.3 mph3.7 kmh 30.24 in1024.0 mb - 0.00 in0.0 mm 0.00 in0.0 mm
03:00 PM 55.4°F13.0°C 24.4°F-4.2°C 30% 4.6 mph NW7.4 kmh NW 5.8 mph9.3 kmh 30.24 in1024.0 mb - 0.00 in0.0 mm 0.00 in0.0 mm
03:10 PM 54.9°F12.7°C 21.5°F-5.8°C 27% 3.5 mph ESE5.6 kmh ESE 5.8 mph9.3 kmh 30.24 in1024.0 mb - 0.00 in0.0 mm 0.00 in0.0 mm
03:20 PM 54.1°F12.3°C 23.3°F-4.8°C 30% 2.3 mph NE3.7 kmh NE 5.8 mph9.3 kmh 30.24 in1024.0 mb - 0.00 in0.0 mm 0.00 in0.0 mm
03:30 PM 53.3°F11.8°C 21.8°F-5.7°C 29% 4.6 mph WSW7.4 kmh WSW 3.5 mph5.6 kmh 30.25 in1024.4 mb - 0.00 in0.0 mm 0.00 in0.0 mm
03:40 PM 53.2°F11.8°C 21.7°F-5.7°C 29% 3.5 mph NW5.6 kmh NW 3.5 mph5.6 kmh 30.25 in1024.4 mb - 0.00 in0.0 mm 0.00 in0.0 mm
03:50 PM 52.8°F11.6°C 20.5°F-6.4°C 28% 2.3 mph E3.7 kmh E 2.3 mph3.7 kmh 30.25 in1024.4 mb - 0.00 in0.0 mm 0.00 in0.0 mm
04:00 PM 52.5°F11.4°C 22.7°F-5.2°C 31% 3.5 mph NE5.6 kmh NE 2.3 mph3.7 kmh 30.24 in1024.0 mb - 0.00 in0.0 mm 0.00 in0.0 mm
04:10 PM 51.8°F11.0°C 20.5°F-6.4°C 29% 3.5 mph SW5.6 kmh SW 2.3 mph3.7 kmh 30.24 in1024.0 mb - 0.00 in0.0 mm 0.00 in0.0 mm
04:20 PM 51.4°F10.8°C 19.4°F-7.0°C 28% 5.8 mph WSW9.3 kmh WSW 9.2 mph14.8 kmh 30.24 in1024.0 mb - 0.00 in0.0 mm 0.00 in0.0 mm
04:30 PM 51.4°F10.8°C 20.2°F-6.6°C 29% 1.2 mph WSW1.9 kmh WSW 2.3 mph3.7 kmh 30.24 in1024.0 mb - 0.00 in0.0 mm 0.00 in0.0 mm
04:40 PM 51.1°F10.6°C 19.9°F-6.7°C 29% 2.3 mph NW3.7 kmh NW 3.5 mph5.6 kmh 30.24 in1024.0 mb - 0.00 in0.0 mm 0.00 in0.0 mm
04:50 PM 50.8°F10.4°C 20.5°F-6.4°C 30% 3.5 mph W5.6 kmh W 5.8 mph9.3 kmh 30.24 in1024.0 mb - 0.00 in0.0 mm 0.00 in0.0 mm
05:00 PM 50.7°F10.4°C 20.4°F-6.4°C 30% 2.3 mph NNW3.7 kmh NNW 2.3 mph3.7 kmh 30.25 in1024.4 mb - 0.00 in0.0 mm 0.00 in0.0 mm
05:10 PM 50.5°F10.3°C 20.2°F-6.6°C 30% 3.5 mph W5.6 kmh W 2.3 mph3.7 kmh 30.25 in1024.4 mb - 0.00 in0.0 mm 0.00 in0.0 mm
05:20 PM 50.3°F10.2°C 21.6°F-5.8°C 32% 1.2 mph NW1.9 kmh NW 2.3 mph3.7 kmh 30.26 in1024.7 mb - 0.00 in0.0 mm 0.00 in0.0 mm
05:30 PM 50.3°F10.2°C 21.5°F-5.8°C 32% 2.3 mph W3.7 kmh W 2.3 mph3.7 kmh 30.26 in1024.7 mb - 0.00 in0.0 mm 0.00 in0.0 mm
05:40 PM 50.3°F10.2°C 22.3°F-5.4°C 33% 1.2 mph NW1.9 kmh NW 1.2 mph1.9 kmh 30.26 in1024.7 mb - 0.00 in0.0 mm 0.00 in0.0 mm
05:50 PM 50.2°F10.1°C 21.4°F-5.9°C 32% Calm Calm 1.2 mph1.9 kmh 30.26 in1024.7 mb - 0.00 in0.0 mm 0.00 in0.0 mm
06:00 PM 50.1°F10.1°C 21.3°F-5.9°C 32% 2.3 mph SW3.7 kmh SW 2.3 mph3.7 kmh 30.27 in1025.1 mb - 0.00 in0.0 mm 0.00 in0.0 mm
06:10 PM 50.0°F10.0°C 21.3°F-5.9°C 32% 2.3 mph WNW3.7 kmh WNW 2.3 mph3.7 kmh 30.27 in1025.1 mb - 0.00 in0.0 mm 0.00 in0.0 mm
06:20 PM 49.9°F9.9°C 23.9°F-4.5°C 36% Calm Calm 2.3 mph3.7 kmh 30.27 in1025.1 mb - 0.00 in0.0 mm 0.00 in0.0 mm
06:30 PM 49.7°F9.8°C 23.8°F-4.6°C 36% Calm Calm -- 30.27 in1025.1 mb - 0.00 in0.0 mm 0.00 in0.0 mm
06:40 PM 49.3°F9.6°C 27.2°F-2.7°C 42% Calm Calm -- 30.26 in1024.7 mb - 0.00 in0.0 mm 0.00 in0.0 mm
06:50 PM 48.9°F9.4°C 26.8°F-2.9°C 42% Calm Calm -- 30.27 in1025.1 mb - 0.00 in0.0 mm 0.00 in0.0 mm
07:00 PM 48.5°F9.2°C 26.4°F-3.1°C 42% Calm Calm -- 30.27 in1025.1 mb - 0.00 in0.0 mm 0.00 in0.0 mm
07:10 PM 48.0°F8.9°C 25.4°F-3.7°C 41% Calm Calm -- 30.27 in1025.1 mb - 0.00 in0.0 mm 0.00 in0.0 mm
07:20 PM 47.5°F8.6°C 25.5°F-3.6°C 42% Calm Calm -- 30.26 in1024.7 mb - 0.00 in0.0 mm 0.00 in0.0 mm
07:30 PM 47.2°F8.4°C 27.9°F-2.3°C 47% Calm Calm -- 30.27 in1025.1 mb - 0.00 in0.0 mm 0.00 in0.0 mm
07:40 PM 46.7°F8.2°C 25.9°F-3.4°C 44% Calm Calm -- 30.27 in1025.1 mb - 0.00 in0.0 mm 0.00 in0.0 mm
07:50 PM 46.5°F8.1°C 26.8°F-2.9°C 46% Calm Calm -- 30.26 in1024.7 mb - 0.00 in0.0 mm 0.00 in0.0 mm
08:00 PM 46.3°F7.9°C 27.7°F-2.4°C 48% Calm Calm -- 30.26 in1024.7 mb - 0.00 in0.0 mm 0.00 in0.0 mm
08:10 PM 46.0°F7.8°C 28.9°F-1.7°C 51% Calm Calm -- 30.27 in1025.1 mb - 0.00 in0.0 mm 0.00 in0.0 mm
08:20 PM 45.8°F7.7°C 29.2°F-1.6°C 52% Calm Calm -- 30.27 in1025.1 mb - 0.00 in0.0 mm 0.00 in0.0 mm
08:30 PM 45.4°F7.4°C 29.2°F-1.6°C 53% Calm Calm -- 30.28 in1025.4 mb - 0.00 in0.0 mm 0.00 in0.0 mm
08:40 PM 44.8°F7.1°C 29.6°F-1.3°C 55% Calm Calm -- 30.28 in1025.4 mb - 0.00 in0.0 mm 0.00 in0.0 mm
08:50 PM 44.6°F7.0°C 30.3°F-0.9°C 57% Calm Calm -- 30.28 in1025.4 mb - 0.00 in0.0 mm 0.00 in0.0 mm
09:00 PM 44.3°F6.8°C 30.4°F-0.9°C 58% Calm Calm -- 30.29 in1025.7 mb - 0.00 in0.0 mm 0.00 in0.0 mm
09:10 PM 44.0°F6.7°C 31.0°F-0.6°C 60% Calm Calm -- 30.29 in1025.7 mb - 0.00 in0.0 mm 0.00 in0.0 mm
09:20 PM 43.7°F6.5°C 29.0°F-1.7°C 56% Calm Calm -- 30.29 in1025.7 mb - 0.00 in0.0 mm 0.00 in0.0 mm
09:30 PM 43.2°F6.2°C 28.5°F-1.9°C 56% Calm Calm -- 30.29 in1025.7 mb - 0.00 in0.0 mm 0.00 in0.0 mm